createdAt,value
2023-05-04T00:02:23.898Z,12.25
2023-05-04T00:04:53.597Z,12.00
2023-05-04T00:07:21.967Z,12.25
2023-05-04T00:09:51.241Z,12.50
2023-05-04T00:12:19.386Z,12.25
2023-05-04T00:14:47.900Z,12.25
2023-05-04T00:17:16.126Z,12.33
2023-05-04T00:19:46.261Z,11.25
2023-05-04T00:22:14.490Z,11.25
2023-05-04T00:24:44.361Z,12.25
2023-05-04T00:27:12.481Z,12.75
2023-05-04T00:29:41.073Z,13.00
2023-05-04T00:32:09.791Z,11.25
2023-05-04T00:34:38.275Z,12.00
2023-05-04T00:37:07.018Z,13.00
2023-05-04T00:39:35.595Z,12.75
2023-05-04T00:42:03.778Z,13.00
2023-05-04T00:44:32.352Z,13.33
2023-05-04T00:47:00.738Z,12.25
2023-05-04T00:49:29.473Z,12.33
2023-05-04T00:51:59.513Z,11.50
2023-05-04T00:54:28.265Z,13.00
2023-05-04T00:56:57.415Z,12.75
2023-05-04T00:59:26.357Z,12.33
2023-05-04T01:01:54.594Z,11.50
2023-05-04T01:04:23.293Z,13.00
2023-05-04T01:07:04.899Z,13.00
2023-05-04T01:09:42.935Z,13.00
2023-05-04T01:12:19.274Z,12.75
2023-05-04T01:14:49.325Z,13.00
2023-05-04T01:17:17.755Z,13.00
2023-05-04T01:19:48.709Z,13.00
2023-05-04T01:22:17.001Z,12.50
2023-05-04T01:24:45.585Z,12.50
2023-05-04T01:27:25.165Z,12.25
2023-05-04T01:29:59.890Z,13.00
2023-05-04T01:32:29.903Z,11.00
2023-05-04T01:35:00.620Z,11.25
2023-05-04T01:37:28.747Z,11.25
2023-05-04T01:39:57.250Z,11.25
2023-05-04T01:42:25.352Z,12.75
2023-05-04T01:44:53.979Z,12.75
2023-05-04T01:47:22.220Z,11.00
2023-05-04T01:49:51.259Z,11.00
2023-05-04T01:52:19.515Z,12.75
2023-05-04T01:54:48.061Z,11.25
2023-05-04T01:57:16.302Z,12.75
2023-05-04T01:59:44.979Z,11.25
2023-05-04T02:02:13.156Z,12.25
2023-05-04T02:04:41.944Z,11.00
2023-05-04T02:07:10.204Z,11.25
2023-05-04T02:09:38.788Z,11.50
2023-05-04T02:12:07.179Z,11.00
2023-05-04T02:14:35.626Z,12.75
2023-05-04T02:17:06.769Z,11.00
2023-05-04T02:19:35.338Z,11.00
2023-05-04T02:22:03.584Z,11.75
2023-05-04T02:24:32.147Z,11.50
2023-05-04T02:27:00.309Z,12.50
2023-05-04T02:29:28.938Z,11.00
2023-05-04T02:31:57.210Z,11.00
2023-05-04T02:34:26.072Z,12.50
2023-05-04T02:36:56.136Z,11.25
2023-05-04T02:39:24.690Z,11.00
2023-05-04T02:41:52.932Z,12.50
2023-05-04T02:44:22.159Z,13.50
2023-05-04T02:46:50.421Z,11.50
2023-05-04T02:49:18.917Z,12.50
2023-05-04T02:51:47.592Z,11.25
2023-05-04T02:54:16.134Z,13.00
2023-05-04T02:56:44.515Z,11.00
2023-05-04T02:59:12.985Z,11.00
2023-05-04T03:01:41.396Z,11.00
2023-05-04T03:04:10.031Z,11.00
2023-05-04T03:06:38.356Z,11.25
2023-05-04T03:09:07.252Z,11.50
2023-05-04T03:11:35.775Z,11.00
2023-05-04T03:14:04.685Z,11.00
2023-05-04T03:16:34.084Z,12.50
2023-05-04T03:19:04.171Z,11.00
2023-05-04T03:21:32.463Z,11.50
2023-05-04T03:24:01.292Z,11.33
2023-05-04T03:26:29.588Z,11.33
2023-05-04T03:28:58.199Z,11.00
2023-05-04T03:31:26.470Z,11.00
2023-05-04T03:33:55.832Z,12.25
2023-05-04T03:36:24.568Z,11.33
2023-05-04T03:38:53.572Z,11.50
2023-05-04T03:41:21.784Z,11.50
2023-05-04T03:43:50.322Z,11.50
2023-05-04T03:46:20.032Z,11.25
2023-05-04T03:48:48.596Z,11.50
2023-05-04T03:51:18.898Z,12.67
2023-05-04T03:53:47.640Z,12.75
2023-05-04T03:56:18.065Z,12.75
2023-05-04T03:58:48.030Z,11.50
2023-05-04T04:01:20.884Z,11.00
2023-05-04T04:03:49.637Z,11.25
2023-05-04T04:06:20.770Z,12.50
2023-05-04T04:08:49.830Z,12.25
2023-05-04T04:11:18.256Z,12.50
2023-05-04T04:13:46.989Z,11.50
2023-05-04T04:16:15.562Z,13.00
2023-05-04T04:18:44.445Z,12.00
2023-05-04T04:21:13.150Z,11.00
2023-05-04T04:23:42.029Z,11.25
2023-05-04T04:26:10.747Z,12.50
2023-05-04T04:28:39.525Z,13.00
2023-05-04T04:31:08.207Z,11.67
2023-05-04T04:33:37.050Z,11.50
2023-05-04T04:36:05.692Z,12.75
2023-05-04T04:38:34.507Z,13.25
2023-05-04T04:41:02.917Z,12.75
2023-05-04T04:43:34.148Z,12.50
2023-05-04T04:46:04.548Z,12.75
2023-05-04T04:48:33.530Z,11.50
2023-05-04T04:51:02.008Z,11.33
2023-05-04T04:53:31.387Z,12.75
2023-05-04T04:55:59.728Z,12.50
2023-05-04T04:58:28.540Z,12.75
2023-05-04T05:00:58.702Z,12.75
2023-05-04T05:03:27.878Z,12.25
2023-05-04T05:05:56.270Z,12.75
2023-05-04T05:08:25.180Z,12.75
2023-05-04T05:10:53.542Z,12.50
2023-05-04T05:13:22.296Z,12.50
2023-05-04T05:15:50.867Z,13.00
2023-05-04T05:18:19.518Z,12.50
2023-05-04T05:20:49.018Z,11.33
2023-05-04T05:23:18.233Z,12.50
2023-05-04T05:25:46.679Z,12.50
2023-05-04T05:28:16.045Z,12.67
2023-05-04T05:30:44.884Z,12.50
2023-05-04T05:33:14.125Z,12.25
2023-05-04T05:35:42.586Z,12.50
2023-05-04T05:38:12.861Z,11.50
2023-05-04T05:40:41.564Z,13.00
2023-05-04T05:43:10.376Z,13.00
2023-05-04T05:45:38.841Z,12.67
2023-05-04T05:48:07.534Z,12.67
2023-05-04T05:50:36.083Z,14.33
2023-05-04T05:53:04.824Z,14.25
2023-05-04T05:55:33.219Z,13.75
2023-05-04T05:58:01.936Z,14.00
2023-05-04T06:00:30.432Z,13.75
2023-05-04T06:02:59.350Z,14.00
2023-05-04T06:05:27.876Z,12.00
2023-05-04T06:07:56.718Z,12.50
2023-05-04T06:10:25.244Z,14.00
2023-05-04T06:12:54.235Z,12.75
2023-05-04T06:15:22.679Z,14.25
2023-05-04T06:17:51.495Z,13.00
2023-05-04T06:20:19.916Z,12.00
2023-05-04T06:22:48.817Z,14.00
2023-05-04T06:25:17.237Z,14.25
2023-05-04T06:27:45.980Z,12.50
2023-05-04T06:30:17.492Z,12.50
2023-05-04T06:32:47.143Z,12.75
2023-05-04T06:35:15.670Z,13.00
2023-05-04T06:37:44.495Z,13.00
2023-05-04T06:40:13.622Z,12.75
2023-05-04T06:42:42.619Z,13.00
2023-05-04T06:45:11.318Z,13.00
2023-05-04T06:47:40.112Z,13.50
2023-05-04T06:50:09.869Z,13.50
2023-05-04T06:52:40.286Z,14.00
2023-05-04T06:55:08.820Z,15.50
2023-05-04T06:57:37.823Z,14.00
2023-05-04T07:00:09.195Z,14.00
2023-05-04T07:02:37.998Z,13.00
2023-05-04T07:05:06.836Z,14.00
2023-05-04T07:07:36.524Z,15.50
2023-05-04T07:10:05.396Z,15.25
2023-05-04T07:12:34.426Z,15.75
2023-05-04T07:15:06.971Z,15.25
2023-05-04T07:17:38.008Z,15.25
2023-05-04T07:20:07.390Z,15.50
2023-05-04T07:22:36.401Z,15.00
2023-05-04T07:25:05.264Z,14.00
2023-05-04T07:27:35.504Z,14.00
2023-05-04T07:30:06.888Z,14.33
2023-05-04T07:32:36.347Z,15.50
2023-05-04T07:35:05.343Z,14.00
2023-05-04T07:37:34.439Z,14.00
2023-05-04T07:40:06.277Z,15.00
2023-05-04T07:42:36.580Z,15.00
2023-05-04T07:45:05.390Z,15.00
2023-05-04T07:47:34.785Z,14.75
2023-05-04T07:50:04.629Z,15.33
2023-05-04T07:52:34.094Z,16.00
2023-05-04T07:55:02.555Z,15.25
2023-05-04T07:57:32.661Z,14.00
2023-05-04T08:00:01.411Z,13.75
2023-05-04T08:02:30.389Z,14.00
2023-05-04T08:04:58.927Z,13.50
2023-05-04T08:07:28.302Z,14.00
2023-05-04T08:09:57.062Z,14.00
2023-05-04T08:12:27.162Z,14.00
2023-05-04T08:14:55.239Z,14.00
2023-05-04T08:17:24.134Z,16.25
2023-05-04T08:19:53.578Z,15.50
2023-05-04T08:22:22.276Z,15.25
2023-05-04T08:24:50.367Z,16.50
2023-05-04T08:27:18.772Z,15.33
2023-05-04T08:29:46.947Z,14.00
2023-05-04T08:32:15.433Z,15.50
2023-05-04T08:34:43.477Z,13.50
2023-05-04T08:37:12.019Z,14.50
2023-05-04T08:39:41.947Z,15.67
2023-05-04T08:42:11.070Z,15.00
2023-05-04T08:44:39.204Z,15.33
2023-05-04T08:47:07.866Z,15.00
2023-05-04T08:49:35.956Z,14.00
2023-05-04T08:52:08.969Z,15.25
2023-05-04T08:54:39.943Z,14.00
2023-05-04T08:57:08.596Z,15.25
2023-05-04T08:59:37.643Z,16.00
2023-05-04T09:02:06.455Z,14.00
2023-05-04T09:04:34.775Z,15.00
2023-05-04T09:07:03.657Z,15.00
2023-05-04T09:09:31.903Z,14.25
2023-05-04T09:12:00.524Z,15.00
2023-05-04T09:14:35.909Z,15.25
2023-05-04T09:17:14.777Z,15.25
2023-05-04T09:19:44.055Z,15.50
2023-05-04T09:22:17.385Z,14.00
2023-05-04T09:24:46.622Z,15.25
2023-05-04T09:27:18.529Z,15.00
2023-05-04T09:29:55.613Z,14.75
2023-05-04T09:32:24.332Z,14.25
2023-05-04T09:34:53.321Z,13.75
2023-05-04T09:37:22.338Z,14.00
2023-05-04T09:39:55.787Z,15.25
2023-05-04T09:42:25.354Z,14.00
2023-05-04T09:45:04.834Z,13.67
2023-05-04T09:47:36.442Z,15.00
2023-05-04T09:50:20.775Z,15.00
2023-05-04T09:52:50.414Z,16.75
2023-05-04T09:55:20.023Z,13.75
2023-05-04T09:57:50.590Z,14.00
2023-05-04T10:00:19.778Z,15.25
2023-05-04T10:02:49.116Z,15.25
2023-05-04T10:05:18.856Z,15.50
2023-05-04T10:07:47.709Z,13.75
2023-05-04T10:10:16.679Z,15.25
2023-05-04T10:12:45.784Z,14.33
2023-05-04T10:15:15.010Z,15.25
2023-05-04T10:17:54.425Z,15.25
2023-05-04T10:20:44.500Z,15.00
2023-05-04T10:23:23.966Z,14.50
2023-05-04T10:26:01.300Z,15.00
2023-05-04T10:28:59.778Z,14.00
2023-05-04T10:31:40.873Z,16.00
2023-05-04T10:34:10.567Z,15.50
2023-05-04T10:36:44.816Z,13.75
2023-05-04T10:39:24.202Z,15.33
2023-05-04T10:42:08.919Z,13.75
2023-05-04T10:44:58.382Z,14.00
2023-05-04T10:47:32.743Z,14.00
2023-05-04T10:50:06.548Z,14.00
2023-05-04T10:52:58.270Z,13.75
2023-05-04T10:55:28.033Z,15.25
2023-05-04T10:57:57.382Z,15.00
2023-05-04T11:00:39.189Z,16.00
2023-05-04T11:03:08.249Z,14.25
2023-05-04T11:05:55.056Z,14.00
2023-05-04T11:08:25.774Z,15.00
2023-05-04T11:11:07.515Z,14.75
2023-05-04T11:13:42.529Z,16.67
2023-05-04T11:16:13.069Z,14.50
2023-05-04T11:18:41.474Z,14.00
2023-05-04T11:21:09.932Z,16.75
2023-05-04T11:23:38.725Z,16.00
2023-05-04T11:26:09.231Z,15.00
2023-05-04T11:28:38.476Z,17.50
2023-05-04T11:31:33.342Z,16.75
2023-05-04T11:34:01.465Z,18.25
2023-05-04T11:36:29.946Z,16.75
2023-05-04T11:38:58.563Z,16.50
2023-05-04T11:41:27.415Z,16.50
2023-05-04T11:43:55.738Z,17.00
2023-05-04T11:46:24.580Z,16.67
2023-05-04T11:48:52.974Z,17.33
2023-05-04T11:51:29.423Z,17.75
2023-05-04T11:54:00.200Z,16.75
2023-05-04T11:56:28.727Z,16.25
2023-05-04T11:58:56.871Z,18.00
2023-05-04T12:01:26.896Z,18.00
2023-05-04T12:03:55.345Z,17.67
2023-05-04T12:06:42.016Z,19.25
2023-05-04T12:09:10.395Z,19.00
2023-05-04T12:11:40.831Z,16.50
2023-05-04T12:14:11.927Z,15.00
2023-05-04T12:16:41.303Z,18.00
2023-05-04T12:19:11.580Z,16.33
2023-05-04T12:21:53.902Z,17.67
2023-05-04T12:24:23.721Z,17.00
2023-05-04T12:26:52.675Z,16.33
2023-05-04T12:29:20.876Z,16.50
2023-05-04T12:31:49.455Z,17.67
2023-05-04T12:34:17.725Z,16.50
2023-05-04T12:36:46.468Z,17.00
2023-05-04T12:39:14.682Z,18.00
2023-05-04T12:41:43.336Z,16.50
2023-05-04T12:44:11.930Z,19.75
2023-05-04T12:46:40.340Z,16.50
2023-05-04T12:49:11.390Z,16.00
2023-05-04T12:51:41.661Z,18.00
2023-05-04T12:54:10.195Z,16.75
2023-05-04T12:56:40.113Z,15.00
2023-05-04T12:59:08.566Z,15.75
2023-05-04T13:01:37.191Z,16.25
2023-05-04T13:04:05.949Z,15.33
2023-05-04T13:06:34.170Z,15.00
2023-05-04T13:09:06.170Z,14.00
2023-05-04T13:11:34.635Z,15.33
2023-05-04T13:14:03.393Z,15.50
2023-05-04T13:16:31.853Z,15.50
2023-05-04T13:19:00.551Z,15.00
2023-05-04T13:21:28.870Z,15.00
2023-05-04T13:23:58.516Z,15.25
2023-05-04T13:26:26.915Z,15.75
2023-05-04T13:28:55.429Z,15.50
2023-05-04T13:31:23.686Z,15.00
2023-05-04T13:33:52.681Z,14.00
2023-05-04T13:36:21.007Z,15.00
2023-05-04T13:38:49.545Z,15.00
2023-05-04T13:41:18.246Z,14.25
2023-05-04T13:43:47.034Z,14.00
2023-05-04T13:46:15.380Z,14.00
2023-05-04T13:48:43.970Z,15.33
2023-05-04T13:51:12.198Z,14.00
2023-05-04T13:53:40.833Z,15.50
2023-05-04T13:56:09.279Z,13.75
2023-05-04T13:58:37.868Z,13.00
2023-05-04T14:01:06.762Z,15.50
2023-05-04T14:03:35.466Z,13.75
2023-05-04T14:06:03.910Z,14.75
2023-05-04T14:08:32.483Z,13.75
2023-05-04T14:11:00.724Z,13.75
2023-05-04T14:13:29.292Z,15.25
2023-05-04T14:15:58.704Z,13.67
2023-05-04T14:18:28.764Z,14.00
2023-05-04T14:20:57.147Z,14.25
2023-05-04T14:23:25.980Z,14.00
2023-05-04T14:25:57.192Z,15.00
2023-05-04T14:28:27.648Z,17.00
2023-05-04T14:30:55.772Z,14.25
2023-05-04T14:33:24.491Z,14.33
2023-05-04T14:35:52.681Z,14.00
2023-05-04T14:38:21.280Z,13.67
2023-05-04T14:40:49.783Z,14.00
2023-05-04T14:43:18.437Z,16.00
2023-05-04T14:45:46.813Z,13.00
2023-05-04T14:48:17.565Z,15.00
2023-05-04T14:50:45.930Z,13.67
2023-05-04T14:53:14.483Z,13.25
2023-05-04T14:55:42.892Z,14.00
2023-05-04T14:58:12.563Z,14.00
2023-05-04T15:00:41.683Z,14.00
2023-05-04T15:03:10.397Z,15.00
2023-05-04T15:05:38.834Z,15.25
2023-05-04T15:08:07.703Z,15.00
2023-05-04T15:10:36.014Z,13.50
2023-05-04T15:13:04.634Z,13.75
2023-05-04T15:15:32.862Z,15.25
2023-05-04T15:18:01.642Z,14.50
2023-05-04T15:20:29.930Z,14.25
2023-05-04T15:23:00.191Z,14.25
2023-05-04T15:25:28.449Z,14.00
2023-05-04T15:27:57.053Z,15.33
2023-05-04T15:30:25.244Z,15.50
2023-05-04T15:32:53.779Z,14.00
2023-05-04T15:35:22.081Z,15.25
2023-05-04T15:37:50.724Z,14.25
2023-05-04T15:40:18.973Z,14.00
2023-05-04T15:42:47.642Z,14.00
2023-05-04T15:45:15.976Z,15.25
2023-05-04T15:47:45.868Z,15.00
2023-05-04T15:50:14.017Z,14.25
2023-05-04T15:52:42.995Z,14.50
2023-05-04T15:55:24.474Z,13.50
2023-05-04T15:57:54.480Z,15.00
2023-05-04T16:00:22.871Z,15.00
2023-05-04T16:02:52.064Z,15.33
2023-05-04T16:05:20.858Z,15.25
2023-05-04T16:07:49.629Z,15.00
2023-05-04T16:10:18.280Z,16.00
2023-05-04T16:12:47.135Z,15.25
2023-05-04T16:15:15.531Z,15.00
2023-05-04T16:17:44.243Z,14.00
2023-05-04T16:20:12.678Z,14.00
2023-05-04T16:22:41.352Z,14.00
2023-05-04T16:25:11.183Z,14.00
2023-05-04T16:27:40.238Z,13.50
2023-05-04T16:30:09.362Z,13.75
2023-05-04T16:32:38.477Z,13.67
2023-05-04T16:35:07.867Z,15.50
2023-05-04T16:37:37.806Z,15.00
2023-05-04T16:40:16.389Z,15.33
2023-05-04T16:42:45.740Z,15.00
2023-05-04T16:45:14.837Z,16.50
2023-05-04T16:47:44.248Z,16.50
2023-05-04T16:50:14.326Z,15.75
2023-05-04T16:52:43.227Z,14.50
2023-05-04T16:55:12.344Z,15.25
2023-05-04T16:57:41.741Z,15.50
2023-05-04T17:00:11.177Z,15.25
2023-05-04T17:02:39.962Z,15.00
2023-05-04T17:05:10.780Z,14.00
2023-05-04T17:07:39.978Z,15.75
2023-05-04T17:10:09.261Z,15.00
2023-05-04T17:12:38.294Z,15.00
2023-05-04T17:15:07.231Z,14.25
2023-05-04T17:17:36.190Z,16.50
2023-05-04T17:20:05.151Z,15.67
2023-05-04T17:22:34.203Z,15.25
2023-05-04T17:25:02.553Z,15.00
2023-05-04T17:27:31.183Z,17.00
2023-05-04T17:29:59.451Z,18.00
2023-05-04T17:32:28.222Z,18.00
2023-05-04T17:35:05.622Z,16.00
2023-05-04T17:37:40.828Z,19.25
2023-05-04T17:40:09.725Z,19.75
2023-05-04T17:42:38.656Z,17.75
2023-05-04T17:45:07.627Z,18.33
2023-05-04T17:47:36.275Z,16.67
2023-05-04T17:50:05.317Z,16.50
2023-05-04T17:52:34.275Z,17.00
2023-05-04T17:55:02.705Z,16.75
2023-05-04T17:57:31.655Z,16.00
2023-05-04T18:00:00.196Z,16.67
2023-05-04T18:02:31.090Z,16.75
2023-05-04T18:04:59.352Z,16.75
2023-05-04T18:07:27.918Z,17.25
2023-05-04T18:09:56.322Z,16.75
2023-05-04T18:12:25.795Z,17.00
2023-05-04T18:14:54.232Z,16.75
2023-05-04T18:17:22.966Z,16.50
2023-05-04T18:19:51.253Z,16.75
2023-05-04T18:22:19.917Z,17.25
2023-05-04T18:24:49.957Z,15.50
2023-05-04T18:27:18.568Z,15.00
2023-05-04T18:29:47.403Z,17.00
2023-05-04T18:32:16.305Z,16.50
2023-05-04T18:34:47.991Z,17.00
2023-05-04T18:37:16.806Z,15.50
2023-05-04T18:39:45.122Z,16.67
2023-05-04T18:42:13.957Z,16.75
2023-05-04T18:44:42.246Z,16.33
2023-05-04T18:47:11.244Z,17.25
2023-05-04T18:49:39.556Z,16.50
2023-05-04T18:52:08.283Z,16.75
2023-05-04T18:54:36.830Z,17.75
2023-05-04T18:57:05.606Z,19.50
2023-05-04T18:59:35.143Z,16.75
2023-05-04T19:02:04.230Z,18.00
2023-05-04T19:04:32.646Z,16.00
2023-05-04T19:07:01.999Z,16.25
2023-05-04T19:09:30.364Z,18.00
2023-05-04T19:11:59.074Z,16.75
2023-05-04T19:14:30.554Z,16.50
2023-05-04T19:17:01.109Z,17.33
2023-05-04T19:19:29.508Z,18.00
2023-05-04T19:21:58.846Z,17.00
2023-05-04T19:24:28.286Z,16.50
2023-05-04T19:26:58.317Z,17.00
2023-05-04T19:29:27.041Z,17.50
2023-05-04T19:31:56.097Z,18.00
2023-05-04T19:34:24.378Z,19.25
2023-05-04T19:36:53.071Z,18.00
2023-05-04T19:39:22.100Z,18.00
2023-05-04T19:41:50.870Z,17.50
2023-05-04T19:44:19.172Z,19.50
2023-05-04T19:46:48.940Z,17.33
2023-05-04T19:49:17.197Z,18.00
2023-05-04T19:51:45.893Z,19.33
2023-05-04T19:54:14.698Z,17.00
2023-05-04T19:56:43.333Z,19.25
2023-05-04T19:59:11.777Z,18.75
2023-05-04T20:01:40.446Z,18.25
2023-05-04T20:04:08.768Z,19.00
2023-05-04T20:06:37.676Z,17.75
2023-05-04T20:09:06.112Z,19.50
2023-05-04T20:11:36.291Z,19.25
2023-05-04T20:14:04.640Z,19.25
2023-05-04T20:16:33.298Z,17.50
2023-05-04T20:19:03.666Z,19.25
2023-05-04T20:21:33.020Z,20.50
2023-05-04T20:24:01.328Z,20.67
2023-05-04T20:26:30.034Z,19.00
2023-05-04T20:28:58.273Z,18.33
2023-05-04T20:31:27.210Z,18.25
2023-05-04T20:33:55.538Z,19.25
2023-05-04T20:36:24.312Z,18.00
2023-05-04T20:38:52.683Z,19.25
2023-05-04T20:41:22.136Z,17.75
2023-05-04T20:43:50.449Z,18.50
2023-05-04T20:46:19.270Z,18.00
2023-05-04T20:48:47.609Z,19.00
2023-05-04T20:51:16.409Z,18.00
2023-05-04T20:53:44.846Z,18.50
2023-05-04T20:56:14.935Z,23.00
2023-05-04T20:58:43.258Z,21.25
2023-05-04T21:01:11.877Z,22.50
2023-05-04T21:03:40.236Z,23.50
2023-05-04T21:06:08.935Z,20.25
2023-05-04T21:08:37.276Z,21.00
2023-05-04T21:11:06.750Z,19.50
2023-05-04T21:13:35.097Z,19.33
2023-05-04T21:16:03.803Z,19.25
2023-05-04T21:18:32.152Z,18.75
2023-05-04T21:21:03.605Z,20.00
2023-05-04T21:23:32.646Z,19.33
2023-05-04T21:26:04.939Z,20.33
2023-05-04T21:28:33.405Z,21.50
2023-05-04T21:31:10.169Z,21.50
2023-05-04T21:33:38.713Z,20.25
2023-05-04T21:36:14.116Z,20.67
2023-05-04T21:38:42.906Z,20.50
2023-05-04T21:41:16.134Z,20.67
2023-05-04T21:43:44.623Z,20.25
2023-05-04T21:46:13.286Z,19.00
2023-05-04T21:48:41.944Z,20.50
2023-05-04T21:51:10.809Z,20.67
2023-05-04T21:53:39.336Z,20.25
2023-05-04T21:56:09.194Z,21.00
2023-05-04T21:58:39.911Z,22.00
2023-05-04T22:01:08.981Z,21.50
2023-05-04T22:03:38.648Z,20.75
2023-05-04T22:06:07.649Z,19.00
2023-05-04T22:08:36.268Z,20.50
2023-05-04T22:11:06.611Z,21.75
2023-05-04T22:13:35.397Z,19.25
2023-05-04T22:16:05.024Z,18.75
2023-05-04T22:18:33.602Z,19.75
2023-05-04T22:21:02.363Z,20.25
2023-05-04T22:23:30.867Z,17.50
2023-05-04T22:25:59.798Z,20.00
2023-05-04T22:28:28.385Z,18.25
2023-05-04T22:30:57.648Z,18.00
2023-05-04T22:33:26.143Z,17.75
2023-05-04T22:35:55.198Z,16.50
2023-05-04T22:38:23.651Z,17.50
2023-05-04T22:40:53.206Z,16.50
2023-05-04T22:43:21.710Z,18.25
2023-05-04T22:45:50.784Z,16.33
2023-05-04T22:48:20.555Z,17.00
2023-05-04T22:50:49.457Z,16.50
2023-05-04T22:53:17.854Z,17.00
2023-05-04T22:55:48.095Z,16.33
2023-05-04T22:58:16.573Z,15.75
2023-05-04T23:00:48.102Z,16.25
2023-05-04T23:03:16.657Z,16.75
2023-05-04T23:05:45.592Z,15.50
2023-05-04T23:08:13.982Z,17.00
2023-05-04T23:10:46.404Z,17.67
2023-05-04T23:13:14.919Z,16.75
2023-05-04T23:15:43.908Z,18.00
2023-05-04T23:18:12.817Z,17.50
2023-05-04T23:20:41.681Z,18.50
2023-05-04T23:23:10.160Z,18.00
2023-05-04T23:25:39.023Z,18.25
2023-05-04T23:28:07.483Z,19.25
2023-05-04T23:30:36.366Z,17.75
2023-05-04T23:33:04.961Z,18.00
2023-05-04T23:35:34.000Z,17.75
2023-05-04T23:38:04.152Z,16.50
2023-05-04T23:40:33.207Z,16.50
2023-05-04T23:43:01.722Z,16.50
2023-05-04T23:45:30.574Z,18.00
2023-05-04T23:47:59.054Z,19.33
2023-05-04T23:50:28.394Z,18.00
2023-05-04T23:52:56.851Z,18.00
2023-05-04T23:55:25.884Z,18.25
2023-05-04T23:57:54.375Z,16.50
